createdAt,value
2022-11-29T00:00:31.461Z,2.00
2022-11-29T00:05:37.018Z,0.50
2022-11-29T00:10:38.997Z,1.00
2022-11-29T00:15:41.000Z,1.00
2022-11-29T00:20:42.990Z,0.00
2022-11-29T00:25:44.915Z,1.00
2022-11-29T00:30:47.435Z,0.00
2022-11-29T00:35:49.384Z,0.00
2022-11-29T00:40:52.726Z,0.00
2022-11-29T00:45:54.792Z,0.00
2022-11-29T00:50:56.870Z,0.00
2022-11-29T00:55:58.968Z,0.00
2022-11-29T01:01:01.005Z,0.00
2022-11-29T01:06:11.643Z,0.00
2022-11-29T01:11:26.324Z,0.00
2022-11-29T01:16:30.320Z,0.00
2022-11-29T01:21:32.376Z,0.00
2022-11-29T01:26:34.376Z,0.00
2022-11-29T01:31:36.440Z,0.00
2022-11-29T01:36:38.430Z,0.00
2022-11-29T01:41:40.414Z,0.00
2022-11-29T01:46:44.734Z,0.00
2022-11-29T01:51:51.614Z,0.00
2022-11-29T01:56:53.658Z,0.00
2022-11-29T02:02:05.357Z,0.00
2022-11-29T02:07:08.028Z,0.00
2022-11-29T02:12:18.835Z,0.00
2022-11-29T02:17:45.013Z,0.00
2022-11-29T02:22:46.845Z,0.00
2022-11-29T02:28:06.862Z,0.00
2022-11-29T02:33:11.679Z,0.00
2022-11-29T02:38:58.009Z,0.00
2022-11-29T02:44:06.004Z,0.00
2022-11-29T02:49:31.863Z,0.00
2022-11-29T02:54:40.675Z,0.00
2022-11-29T03:00:06.556Z,0.00
2022-11-29T03:05:49.770Z,0.00
2022-11-29T03:10:51.646Z,0.00
2022-11-29T03:16:16.121Z,0.00
2022-11-29T03:21:27.156Z,2.00
2022-11-29T03:26:40.073Z,6.00
2022-11-29T03:31:58.381Z,5.00
2022-11-29T03:37:20.242Z,0.00
2022-11-29T03:42:34.167Z,1.00
2022-11-29T03:47:45.160Z,5.25
2022-11-29T03:52:54.910Z,6.00
2022-11-29T03:58:08.953Z,3.00
2022-11-29T04:03:29.765Z,4.50
2022-11-29T04:09:06.188Z,5.00
2022-11-29T04:14:20.178Z,3.00
2022-11-29T04:19:30.946Z,2.00
2022-11-29T04:25:02.604Z,3.00
2022-11-29T04:30:13.888Z,6.00
2022-11-29T04:35:35.533Z,5.00
2022-11-29T04:41:05.265Z,4.25
2022-11-29T04:46:36.553Z,1.75
2022-11-29T04:52:15.226Z,1.50
2022-11-29T04:57:42.228Z,3.00
2022-11-29T05:02:59.828Z,1.00
2022-11-29T05:08:39.479Z,1.75
2022-11-29T05:14:04.252Z,2.00
2022-11-29T05:19:25.398Z,0.00
2022-11-29T05:24:33.576Z,1.00
2022-11-29T05:29:46.347Z,1.00
2022-11-29T05:35:10.030Z,1.00
2022-11-29T05:40:24.032Z,1.00
2022-11-29T05:46:04.588Z,0.00
2022-11-29T05:51:28.278Z,1.75
2022-11-29T05:56:59.950Z,0.25
2022-11-29T06:02:20.816Z,4.25
2022-11-29T06:07:33.448Z,3.00
2022-11-29T06:12:38.810Z,2.00
2022-11-29T06:18:18.246Z,2.00
2022-11-29T06:23:36.656Z,1.25
2022-11-29T06:29:06.735Z,2.75
2022-11-29T06:34:30.960Z,1.00
2022-11-29T06:39:33.419Z,2.25
2022-11-29T06:44:35.641Z,0.50
2022-11-29T06:49:50.419Z,1.00
2022-11-29T06:55:10.000Z,2.75
2022-11-29T07:00:16.345Z,3.00
2022-11-29T07:05:35.456Z,1.50
2022-11-29T07:10:39.617Z,2.25
2022-11-29T07:15:55.400Z,3.75
2022-11-29T07:21:03.295Z,4.25
2022-11-29T07:26:15.225Z,7.00
2022-11-29T07:31:29.057Z,3.75
2022-11-29T07:36:40.031Z,3.00
2022-11-29T07:42:08.113Z,3.00
2022-11-29T07:47:10.517Z,4.25
2022-11-29T07:52:14.608Z,6.00
2022-11-29T07:57:16.613Z,5.25
2022-11-29T08:02:29.832Z,7.00
2022-11-29T08:07:35.636Z,7.25
2022-11-29T08:12:42.579Z,8.75
2022-11-29T08:17:44.671Z,11.00
2022-11-29T08:22:54.375Z,10.00
2022-11-29T08:27:56.507Z,8.75
2022-11-29T08:32:58.523Z,9.50
2022-11-29T08:38:00.514Z,11.00
2022-11-29T08:43:03.713Z,11.25
2022-11-29T08:48:06.208Z,16.25
2022-11-29T08:53:27.370Z,9.50
2022-11-29T08:58:29.610Z,11.50
2022-11-29T09:03:53.195Z,9.50
2022-11-29T09:08:59.138Z,9.00
2022-11-29T09:14:05.470Z,6.75
2022-11-29T09:19:08.150Z,12.50
2022-11-29T09:24:10.721Z,9.50
2022-11-29T09:29:12.664Z,10.00
2022-11-29T09:34:15.883Z,6.75
2022-11-29T09:39:18.064Z,14.00
2022-11-29T09:44:48.189Z,7.50
2022-11-29T09:49:59.274Z,6.00
2022-11-29T09:55:30.163Z,9.00
2022-11-29T10:00:37.977Z,9.50
2022-11-29T10:05:49.997Z,8.75
2022-11-29T10:10:58.622Z,6.50
2022-11-29T10:16:12.355Z,8.00
2022-11-29T10:21:21.047Z,16.00
2022-11-29T10:26:25.883Z,9.50
2022-11-29T10:31:44.123Z,5.00
2022-11-29T10:36:59.554Z,7.50
2022-11-29T10:42:03.744Z,7.00
2022-11-29T10:47:10.765Z,3.00
2022-11-29T10:52:23.575Z,3.25
2022-11-29T10:57:25.811Z,5.00
2022-11-29T11:02:28.623Z,4.75
2022-11-29T11:07:36.253Z,5.00
2022-11-29T11:12:38.448Z,4.50
2022-11-29T11:17:42.309Z,40.00
2022-11-29T11:22:44.662Z,3.00
2022-11-29T11:27:47.348Z,3.00
2022-11-29T11:33:08.330Z,3.00
2022-11-29T11:38:17.781Z,1.25
2022-11-29T11:43:21.887Z,11.00
2022-11-29T11:48:24.677Z,2.00
2022-11-29T11:53:26.676Z,6.00
2022-11-29T11:58:39.369Z,1.75
2022-11-29T12:03:45.174Z,1.00
2022-11-29T12:08:49.435Z,3.00
2022-11-29T12:13:56.887Z,2.25
2022-11-29T12:19:16.852Z,2.00
2022-11-29T12:24:27.730Z,2.00
2022-11-29T12:29:33.587Z,2.25
2022-11-29T12:35:02.802Z,4.75
2022-11-29T12:40:38.395Z,5.50
2022-11-29T12:45:57.617Z,12.25
2022-11-29T12:51:12.630Z,15.00
2022-11-29T12:56:25.780Z,5.50
2022-11-29T13:01:53.548Z,8.75
2022-11-29T13:07:20.905Z,7.50
2022-11-29T13:12:44.168Z,6.75
2022-11-29T13:18:11.597Z,6.50
2022-11-29T13:24:00.718Z,8.50
2022-11-29T13:29:03.136Z,6.00
2022-11-29T13:34:35.664Z,6.75
2022-11-29T13:39:40.467Z,6.00
2022-11-29T13:45:01.267Z,6.00
2022-11-29T13:50:25.754Z,6.00
2022-11-29T13:55:31.567Z,5.00
2022-11-29T14:00:36.677Z,8.75
2022-11-29T14:05:40.433Z,6.00
2022-11-29T14:10:49.204Z,7.25
2022-11-29T14:15:58.537Z,3.25
2022-11-29T14:21:00.647Z,6.00
2022-11-29T14:26:02.707Z,3.00
2022-11-29T14:31:06.535Z,2.00
2022-11-29T14:36:14.570Z,4.50
2022-11-29T14:41:24.610Z,6.00
2022-11-29T14:46:31.993Z,3.75
2022-11-29T14:51:34.535Z,22.00
2022-11-29T14:56:44.969Z,5.00
2022-11-29T15:01:49.611Z,5.25
2022-11-29T15:06:55.739Z,4.00
2022-11-29T15:12:02.435Z,8.00
2022-11-29T15:17:38.636Z,7.00
2022-11-29T15:22:45.658Z,1.00
2022-11-29T15:27:59.076Z,6.00
2022-11-29T15:33:04.650Z,6.25
2022-11-29T15:38:06.605Z,8.75
2022-11-29T15:43:22.927Z,9.25
2022-11-29T15:48:34.136Z,4.50
2022-11-29T15:53:50.038Z,6.25
2022-11-29T15:58:59.585Z,9.75
2022-11-29T16:04:02.181Z,9.50
2022-11-29T16:09:08.698Z,8.00
2022-11-29T16:14:18.937Z,7.00
2022-11-29T16:19:29.710Z,7.25
2022-11-29T16:24:34.280Z,12.00
2022-11-29T16:29:41.669Z,12.00
2022-11-29T16:34:45.078Z,7.50
2022-11-29T16:39:50.764Z,8.00
2022-11-29T16:45:02.013Z,7.00
2022-11-29T16:50:22.744Z,15.00
2022-11-29T16:55:24.807Z,11.25
2022-11-29T17:00:31.695Z,8.00
2022-11-29T17:05:33.734Z,7.00
2022-11-29T17:10:35.700Z,8.75
2022-11-29T17:15:38.039Z,0.00
2022-11-29T17:20:40.046Z,9.00
2022-11-29T17:25:42.330Z,9.00
2022-11-29T17:30:44.558Z,8.00
2022-11-29T17:35:47.246Z,13.75
2022-11-29T17:40:49.917Z,30.00
2022-11-29T17:45:52.342Z,8.25
2022-11-29T17:51:00.103Z,8.00
2022-11-29T17:56:07.815Z,8.75
2022-11-29T18:01:17.687Z,6.75
2022-11-29T18:06:25.272Z,7.00
2022-11-29T18:11:49.744Z,7.00
2022-11-29T18:16:52.188Z,8.00
2022-11-29T18:21:54.271Z,9.75
2022-11-29T18:26:56.219Z,8.75
2022-11-29T18:31:58.171Z,10.00
2022-11-29T18:37:00.151Z,7.25
2022-11-29T18:42:02.174Z,10.00
2022-11-29T18:47:04.175Z,8.00
2022-11-29T18:52:06.536Z,7.00
2022-11-29T18:57:08.512Z,8.00
2022-11-29T19:02:10.579Z,9.00
2022-11-29T19:07:12.548Z,12.75
2022-11-29T19:12:14.520Z,9.75
2022-11-29T19:17:16.522Z,8.50
2022-11-29T19:22:18.603Z,9.25
2022-11-29T19:27:21.285Z,10.00
2022-11-29T19:32:23.275Z,15.75
2022-11-29T19:37:25.385Z,14.75
2022-11-29T19:42:27.359Z,14.00
2022-11-29T19:47:29.384Z,13.00
2022-11-29T19:52:31.504Z,15.00
2022-11-29T19:57:33.505Z,21.75
2022-11-29T20:02:37.356Z,14.50
2022-11-29T20:07:39.589Z,10.75
2022-11-29T20:12:41.637Z,12.50
2022-11-29T20:17:43.570Z,14.00
2022-11-29T20:22:45.604Z,11.50
2022-11-29T20:27:47.605Z,12.00
2022-11-29T20:32:49.650Z,7.00
2022-11-29T20:38:14.054Z,15.00
2022-11-29T20:43:22.277Z,13.00
2022-11-29T20:48:24.852Z,15.25
2022-11-29T20:53:40.192Z,12.00
2022-11-29T20:58:42.146Z,9.00
2022-11-29T21:03:44.180Z,9.75
2022-11-29T21:08:46.147Z,13.75
2022-11-29T21:13:48.347Z,13.50
2022-11-29T21:18:59.865Z,6.75
2022-11-29T21:24:29.702Z,11.50
2022-11-29T21:29:31.846Z,13.25
2022-11-29T21:34:34.161Z,11.50
2022-11-29T21:39:36.175Z,8.75
2022-11-29T21:44:38.491Z,10.00
2022-11-29T21:49:40.759Z,17.50
2022-11-29T21:54:42.758Z,14.00
2022-11-29T21:59:44.774Z,14.00
2022-11-29T22:04:46.966Z,12.00
2022-11-29T22:09:48.977Z,12.00
2022-11-29T22:14:50.911Z,17.00
2022-11-29T22:19:52.845Z,15.00
2022-11-29T22:24:54.739Z,13.00
2022-11-29T22:29:56.659Z,9.50
2022-11-29T22:34:58.578Z,12.00
2022-11-29T22:40:00.553Z,10.25
2022-11-29T22:45:04.150Z,10.00
2022-11-29T22:50:06.573Z,19.00
2022-11-29T22:55:09.248Z,15.25
2022-11-29T23:00:13.595Z,10.25
2022-11-29T23:05:15.580Z,10.75
2022-11-29T23:10:17.500Z,10.50
2022-11-29T23:15:19.434Z,8.00
2022-11-29T23:20:21.346Z,8.25
2022-11-29T23:25:23.281Z,15.00
2022-11-29T23:30:25.199Z,16.75
2022-11-29T23:35:27.117Z,20.75
2022-11-29T23:40:29.045Z,15.50
2022-11-29T23:45:31.129Z,13.00
2022-11-29T23:50:33.273Z,12.25
2022-11-29T23:55:35.320Z,16.75
